createdAt,value
2019-02-03T00:01:02.767Z,180.83
2019-02-03T00:03:32.123Z,187.90
2019-02-03T00:06:01.431Z,193.70
2019-02-03T00:08:30.783Z,192.30
2019-02-03T00:11:00.097Z,161.13
2019-02-03T00:13:31.227Z,170.80
2019-02-03T00:15:58.712Z,199.60
2019-02-03T00:18:28.017Z,183.10
2019-02-03T00:20:57.437Z,165.20
2019-02-03T00:23:26.797Z,191.33
2019-02-03T00:25:56.124Z,191.83
2019-02-03T00:28:25.443Z,170.27
2019-02-03T00:30:54.826Z,191.27
2019-02-03T00:33:24.222Z,191.77
2019-02-03T00:35:53.515Z,197.80
2019-02-03T00:38:24.479Z,187.43
2019-02-03T00:40:52.139Z,184.47
2019-02-03T00:43:21.405Z,188.57
2019-02-03T00:45:50.709Z,186.33
2019-02-03T00:48:20.104Z,184.27
2019-02-03T00:50:49.373Z,163.07
2019-02-03T00:53:18.760Z,150.60
2019-02-03T00:55:48.038Z,176.30
2019-02-03T00:58:17.394Z,165.90
2019-02-03T01:00:46.743Z,171.67
2019-02-03T01:03:16.045Z,177.87
2019-02-03T01:05:45.350Z,182.73
2019-02-03T01:08:14.699Z,176.77
2019-02-03T01:10:44.041Z,178.77
2019-02-03T01:13:13.351Z,158.80
2019-02-03T01:15:42.677Z,172.97
2019-02-03T01:18:11.945Z,173.00
2019-02-03T01:20:41.272Z,177.37
2019-02-03T01:23:10.607Z,165.27
2019-02-03T01:25:39.949Z,178.37
2019-02-03T01:28:09.535Z,167.17
2019-02-03T01:30:38.887Z,174.73
2019-02-03T01:33:08.201Z,166.10
2019-02-03T01:35:37.457Z,162.20
2019-02-03T01:38:06.758Z,177.80
2019-02-03T01:40:36.071Z,154.67
2019-02-03T01:43:05.413Z,154.20
2019-02-03T01:45:34.677Z,159.47
2019-02-03T01:48:04.002Z,166.73
2019-02-03T01:50:33.304Z,164.13
2019-02-03T01:53:02.648Z,166.27
2019-02-03T01:55:31.868Z,166.17
2019-02-03T01:58:01.216Z,177.33
2019-02-03T02:00:30.524Z,176.73
2019-02-03T02:02:59.884Z,173.60
2019-02-03T02:05:29.213Z,179.93
2019-02-03T02:07:58.590Z,174.40
2019-02-03T02:10:28.045Z,169.37
2019-02-03T02:12:57.396Z,183.43
2019-02-03T02:15:26.727Z,169.87
2019-02-03T02:17:56.101Z,177.47
2019-02-03T02:20:28.813Z,176.93
2019-02-03T02:22:58.206Z,181.20
2019-02-03T02:25:27.531Z,179.83
2019-02-03T02:27:56.842Z,190.83
2019-02-03T02:30:26.476Z,181.17
2019-02-03T02:32:55.731Z,141.60
2019-02-03T02:35:25.044Z,193.07
2019-02-03T02:38:05.696Z,182.77
2019-02-03T02:40:24.449Z,178.87
2019-02-03T02:42:53.894Z,180.37
2019-02-03T02:45:23.168Z,187.70
2019-02-03T02:47:52.479Z,179.23
2019-02-03T02:50:30.560Z,189.03
2019-02-03T02:52:59.963Z,180.07
2019-02-03T02:55:29.287Z,180.27
2019-02-03T02:57:58.529Z,193.30
2019-02-03T03:00:27.869Z,184.80
2019-02-03T03:02:57.147Z,176.37
2019-02-03T03:05:26.415Z,178.47
2019-02-03T03:07:55.639Z,154.43
2019-02-03T03:10:24.932Z,168.13
2019-02-03T03:12:54.270Z,173.40
2019-02-03T03:15:23.534Z,168.23
2019-02-03T03:17:52.873Z,158.93
2019-02-03T03:20:22.188Z,162.00
2019-02-03T03:22:51.471Z,158.70
2019-02-03T03:25:20.933Z,174.53
2019-02-03T03:27:50.199Z,173.67
2019-02-03T03:30:27.194Z,162.23
2019-02-03T03:32:56.276Z,162.13
2019-02-03T03:35:25.698Z,156.33
2019-02-03T03:37:54.933Z,170.23
2019-02-03T03:40:28.549Z,161.33
2019-02-03T03:42:58.049Z,174.67
2019-02-03T03:45:27.237Z,167.50
2019-02-03T03:47:56.575Z,169.63
2019-02-03T03:50:25.904Z,172.03
2019-02-03T03:52:55.236Z,170.27
2019-02-03T03:55:24.765Z,176.53
2019-02-03T03:57:54.193Z,164.97
2019-02-03T04:00:24.981Z,168.73
2019-02-03T04:02:54.301Z,162.20
2019-02-03T04:05:23.697Z,165.87
2019-02-03T04:07:53.100Z,171.43
2019-02-03T04:10:23.332Z,172.83
2019-02-03T04:12:52.687Z,165.43
2019-02-03T04:15:21.948Z,172.37
2019-02-03T04:17:51.342Z,176.13
2019-02-03T04:20:25.552Z,180.00
2019-02-03T04:22:54.979Z,171.37
2019-02-03T04:25:24.341Z,167.87
2019-02-03T04:27:53.647Z,172.93
2019-02-03T04:30:23.708Z,183.43
2019-02-03T04:32:53.068Z,175.57
2019-02-03T04:35:22.442Z,178.97
2019-02-03T04:37:51.699Z,168.37
2019-02-03T04:40:21.723Z,173.13
2019-02-03T04:42:51.253Z,169.30
2019-02-03T04:45:22.796Z,168.37
2019-02-03T04:47:49.886Z,162.27
2019-02-03T04:50:20.410Z,169.67
2019-02-03T04:52:49.741Z,172.53
2019-02-03T04:55:19.471Z,162.57
2019-02-03T04:57:48.717Z,153.83
2019-02-03T05:00:24.826Z,159.53
2019-02-03T05:02:54.133Z,151.67
2019-02-03T05:05:23.435Z,156.33
2019-02-03T05:07:52.710Z,145.27
2019-02-03T05:10:22.005Z,154.23
2019-02-03T05:12:51.279Z,150.70
2019-02-03T05:15:22.683Z,148.00
2019-02-03T05:17:52.053Z,146.63
2019-02-03T05:20:23.642Z,152.27
2019-02-03T05:22:52.923Z,165.40
2019-02-03T05:25:22.975Z,137.60
2019-02-03T05:27:52.237Z,154.30
2019-02-03T05:30:32.611Z,158.43
2019-02-03T05:33:01.903Z,148.30
2019-02-03T05:35:31.219Z,146.77
2019-02-03T05:38:00.570Z,141.27
2019-02-03T05:40:29.759Z,144.53
2019-02-03T05:42:59.103Z,98.37
2019-02-03T05:45:28.426Z,123.67
2019-02-03T05:47:57.735Z,130.17
2019-02-03T05:50:26.999Z,111.43
2019-02-03T05:52:56.334Z,126.67
2019-02-03T05:55:25.711Z,111.30
2019-02-03T05:57:54.999Z,118.60
2019-02-03T06:00:30.807Z,99.30
2019-02-03T06:03:00.097Z,89.03
2019-02-03T06:05:29.356Z,109.87
2019-02-03T06:07:58.649Z,110.10
2019-02-03T06:10:28.081Z,87.13
2019-02-03T06:12:57.425Z,97.20
2019-02-03T06:15:26.677Z,117.87
2019-02-03T06:17:55.987Z,118.53
2019-02-03T06:20:25.329Z,106.07
2019-02-03T06:22:54.604Z,124.30
2019-02-03T06:25:23.888Z,106.80
2019-02-03T06:27:53.199Z,113.40
2019-02-03T06:31:14.729Z,119.40
2019-02-03T06:33:46.913Z,115.33
2019-02-03T06:36:16.817Z,120.87
2019-02-03T06:38:46.138Z,111.90
2019-02-03T06:41:15.492Z,119.73
2019-02-03T06:43:44.773Z,112.37
2019-02-03T06:46:42.123Z,115.87
2019-02-03T06:49:31.481Z,117.33
2019-02-03T06:52:00.739Z,115.57
2019-02-03T06:54:30.025Z,121.20
2019-02-03T06:56:59.305Z,117.40
2019-02-03T06:59:28.595Z,111.67
2019-02-03T07:01:58.003Z,121.47
2019-02-03T07:04:27.356Z,110.77
2019-02-03T07:06:56.618Z,107.23
2019-02-03T07:09:25.957Z,111.07
2019-02-03T07:12:00.659Z,103.23
2019-02-03T07:14:29.949Z,106.33
2019-02-03T07:16:59.246Z,79.10
2019-02-03T07:19:28.581Z,98.53
2019-02-03T07:21:57.965Z,88.67
2019-02-03T07:24:27.267Z,95.10
2019-02-03T07:26:56.567Z,73.47
2019-02-03T07:29:25.926Z,80.53
2019-02-03T07:31:55.268Z,83.37
2019-02-03T07:34:27.866Z,89.53
2019-02-03T07:36:57.102Z,80.23
2019-02-03T07:39:26.362Z,75.33
2019-02-03T07:41:55.779Z,94.57
2019-02-03T07:44:25.417Z,88.70
2019-02-03T07:46:54.699Z,84.27
2019-02-03T07:49:24.147Z,89.87
2019-02-03T07:51:53.410Z,74.87
2019-02-03T07:54:22.685Z,88.10
2019-02-03T07:56:52.100Z,63.73
2019-02-03T07:59:21.602Z,84.50
2019-02-03T08:01:51.104Z,66.30
2019-02-03T08:04:20.387Z,75.17
2019-02-03T08:06:49.734Z,81.00
2019-02-03T08:09:19.003Z,84.70
2019-02-03T08:11:48.402Z,81.40
2019-02-03T08:14:17.826Z,78.70
2019-02-03T08:16:47.171Z,56.47
2019-02-03T08:19:16.569Z,70.80
2019-02-03T08:21:46.010Z,82.47
2019-02-03T08:24:15.380Z,76.47
2019-02-03T08:26:44.796Z,77.30
2019-02-03T08:29:14.847Z,69.73
2019-02-03T08:31:43.479Z,70.33
2019-02-03T08:34:12.970Z,77.47
2019-02-03T08:36:42.370Z,64.03
2019-02-03T08:39:11.659Z,74.90
2019-02-03T08:41:41.068Z,62.90
2019-02-03T08:44:10.569Z,60.37
2019-02-03T08:46:39.829Z,68.30
2019-02-03T08:49:09.142Z,69.50
2019-02-03T08:51:38.403Z,65.47
2019-02-03T08:54:07.840Z,74.20
2019-02-03T08:56:37.075Z,69.57
2019-02-03T08:59:06.470Z,68.70
2019-02-03T09:01:35.738Z,67.27
2019-02-03T09:04:05.357Z,63.93
2019-02-03T09:06:34.745Z,67.47
2019-02-03T09:09:06.986Z,64.73
2019-02-03T09:11:36.328Z,65.90
2019-02-03T09:14:05.742Z,52.43
2019-02-03T09:16:35.022Z,61.80
2019-02-03T09:19:04.332Z,60.90
2019-02-03T09:21:33.627Z,60.80
2019-02-03T09:24:02.927Z,59.93
2019-02-03T09:26:32.343Z,51.10
2019-02-03T09:29:01.651Z,61.30
2019-02-03T09:31:31.055Z,55.83
2019-02-03T09:34:00.359Z,56.47
2019-02-03T09:36:29.745Z,58.77
2019-02-03T09:38:59.164Z,57.47
2019-02-03T09:41:28.435Z,52.07
2019-02-03T09:43:57.865Z,49.80
2019-02-03T09:46:27.155Z,51.73
2019-02-03T09:48:56.629Z,52.27
2019-02-03T09:51:25.962Z,54.10
2019-02-03T09:53:55.237Z,52.47
2019-02-03T09:56:24.623Z,56.03
2019-02-03T09:58:53.952Z,47.40
2019-02-03T10:01:23.290Z,51.17
2019-02-03T10:03:52.663Z,52.17
2019-02-03T10:06:22.025Z,49.67
2019-02-03T10:08:51.285Z,56.47
2019-02-03T10:11:22.845Z,43.87
2019-02-03T10:13:50.071Z,46.90
2019-02-03T10:16:19.358Z,45.47
2019-02-03T10:18:48.700Z,41.33
2019-02-03T10:21:18.130Z,44.13
2019-02-03T10:23:47.437Z,48.30
2019-02-03T10:26:16.797Z,37.60
2019-02-03T10:28:46.632Z,37.60
2019-02-03T10:31:15.433Z,38.40
2019-02-03T10:33:44.730Z,38.13
2019-02-03T10:36:14.097Z,41.60
2019-02-03T10:38:43.358Z,37.63
2019-02-03T10:41:23.459Z,38.87
2019-02-03T10:43:42.096Z,42.97
2019-02-03T10:46:11.519Z,40.90
2019-02-03T10:48:40.871Z,41.43
2019-02-03T10:51:10.424Z,40.30
2019-02-03T10:53:39.721Z,38.67
2019-02-03T10:56:09.024Z,37.17
2019-02-03T10:58:38.301Z,36.53
2019-02-03T11:01:07.883Z,34.93
2019-02-03T11:03:37.249Z,39.00
2019-02-03T11:06:08.511Z,42.17
2019-02-03T11:08:37.931Z,38.50
2019-02-03T11:11:07.645Z,37.83
2019-02-03T11:13:36.993Z,37.33
2019-02-03T11:16:06.402Z,38.73
2019-02-03T11:18:35.708Z,33.90
2019-02-03T11:21:04.990Z,36.50
2019-02-03T11:23:34.296Z,35.33
2019-02-03T11:26:03.609Z,37.40
2019-02-03T11:28:32.982Z,36.07
2019-02-03T11:31:04.973Z,35.13
2019-02-03T11:33:35.054Z,35.13
2019-02-03T11:36:04.431Z,36.43
2019-02-03T11:38:33.701Z,33.40
2019-02-03T11:41:03.541Z,36.30
2019-02-03T11:43:32.816Z,32.50
2019-02-03T11:46:02.139Z,33.03
2019-02-03T11:48:31.411Z,31.23
2019-02-03T11:51:00.724Z,34.03
2019-02-03T11:53:30.085Z,32.03
2019-02-03T11:55:59.443Z,27.00
2019-02-03T11:58:28.723Z,25.93
2019-02-03T12:00:58.537Z,26.90
2019-02-03T12:03:27.833Z,30.40
2019-02-03T12:05:57.163Z,26.50
2019-02-03T12:08:26.527Z,27.47
2019-02-03T12:10:55.987Z,22.37
2019-02-03T12:13:25.347Z,24.57
2019-02-03T12:15:54.645Z,22.10
2019-02-03T12:18:24.245Z,23.43
2019-02-03T12:20:53.587Z,18.00
2019-02-03T12:23:22.899Z,24.73
2019-02-03T12:25:52.199Z,20.50
2019-02-03T12:28:21.548Z,21.10
2019-02-03T12:30:50.855Z,22.33
2019-02-03T12:33:20.265Z,21.37
2019-02-03T12:35:49.571Z,20.60
2019-02-03T12:38:18.836Z,21.50
2019-02-03T12:40:48.095Z,21.10
2019-02-03T12:43:17.507Z,21.40
2019-02-03T12:45:46.850Z,21.37
2019-02-03T12:48:16.210Z,17.67
2019-02-03T12:50:45.577Z,17.77
2019-02-03T12:53:14.851Z,19.53
2019-02-03T12:55:45.012Z,20.10
2019-02-03T12:58:14.097Z,16.47
2019-02-03T13:00:43.378Z,22.20
2019-02-03T13:03:12.871Z,15.57
2019-02-03T13:05:42.163Z,15.47
2019-02-03T13:08:11.501Z,15.40
2019-02-03T13:10:40.800Z,13.33
2019-02-03T13:13:10.427Z,14.17
2019-02-03T13:15:50.771Z,12.73
2019-02-03T13:18:20.076Z,13.63
2019-02-03T13:20:49.346Z,14.87
2019-02-03T13:23:18.711Z,12.67
2019-02-03T13:25:48.179Z,13.50
2019-02-03T13:28:17.675Z,14.93
2019-02-03T13:30:48.911Z,10.77
2019-02-03T13:33:18.450Z,15.03
2019-02-03T13:35:47.755Z,13.23
2019-02-03T13:38:17.025Z,13.47
2019-02-03T13:40:46.308Z,16.67
2019-02-03T13:43:15.649Z,10.87
2019-02-03T13:45:45.263Z,15.70
2019-02-03T13:48:14.227Z,12.63
2019-02-03T13:50:43.574Z,12.47
2019-02-03T13:53:12.826Z,13.03
2019-02-03T13:55:42.130Z,12.30
2019-02-03T13:58:11.512Z,11.27
2019-02-03T14:00:43.226Z,13.83
2019-02-03T14:03:12.491Z,9.83
2019-02-03T14:05:41.785Z,10.87
2019-02-03T14:08:11.092Z,11.93
2019-02-03T14:10:40.389Z,12.63
2019-02-03T14:13:09.871Z,13.40
2019-02-03T14:15:39.198Z,15.90
2019-02-03T14:18:08.611Z,11.80
2019-02-03T14:20:37.933Z,12.30
2019-02-03T14:23:07.628Z,10.93
2019-02-03T14:25:36.946Z,13.23
2019-02-03T14:28:06.231Z,10.40
2019-02-03T14:30:41.551Z,9.33
2019-02-03T14:33:10.503Z,8.20
2019-02-03T14:35:39.812Z,9.87
2019-02-03T14:38:09.263Z,10.83
2019-02-03T14:40:38.571Z,10.10
2019-02-03T14:43:07.876Z,12.50
2019-02-03T14:45:37.223Z,13.83
2019-02-03T14:48:06.971Z,9.83
2019-02-03T14:50:36.287Z,11.77
2019-02-03T14:53:08.392Z,9.73
2019-02-03T14:55:39.330Z,12.93
2019-02-03T14:58:08.920Z,11.07
2019-02-03T15:00:40.819Z,9.73
2019-02-03T15:03:18.295Z,8.70
2019-02-03T15:05:47.533Z,10.53
2019-02-03T15:08:16.890Z,11.80
2019-02-03T15:10:46.215Z,8.63
2019-02-03T15:13:17.634Z,12.43
2019-02-03T15:15:47.071Z,12.27
2019-02-03T15:18:16.647Z,10.20
2019-02-03T15:20:45.916Z,12.17
2019-02-03T15:23:15.321Z,15.30
2019-02-03T15:25:44.721Z,13.33
2019-02-03T15:28:15.488Z,9.00
2019-02-03T15:30:47.141Z,11.30
2019-02-03T15:33:16.423Z,12.80
2019-02-03T15:35:45.725Z,10.93
2019-02-03T15:38:15.053Z,16.03
2019-02-03T15:40:44.361Z,9.80
2019-02-03T15:43:24.667Z,9.90
2019-02-03T15:45:42.997Z,10.30
2019-02-03T15:48:12.348Z,14.67
2019-02-03T15:50:41.679Z,16.13
2019-02-03T15:53:11.170Z,11.33
2019-02-03T15:55:40.432Z,11.97
2019-02-03T15:58:11.029Z,14.33
2019-02-03T16:00:42.952Z,13.67
2019-02-03T16:03:12.485Z,12.33
2019-02-03T16:05:41.787Z,12.43
2019-02-03T16:08:14.383Z,14.40
2019-02-03T16:10:43.730Z,11.67
2019-02-03T16:13:13.038Z,11.53
2019-02-03T16:15:42.332Z,14.10
2019-02-03T16:18:11.969Z,11.07
2019-02-03T16:20:45.993Z,12.97
2019-02-03T16:23:17.431Z,12.43
2019-02-03T16:25:46.811Z,11.73
2019-02-03T16:28:16.157Z,12.87
2019-02-03T16:30:45.664Z,10.43
2019-02-03T16:33:15.220Z,11.70
2019-02-03T16:35:44.704Z,12.10
2019-02-03T16:38:22.555Z,12.83
2019-02-03T16:40:43.407Z,13.60
2019-02-03T16:43:12.785Z,11.23
2019-02-03T16:45:44.803Z,12.80
2019-02-03T16:48:14.489Z,11.40
2019-02-03T16:50:43.822Z,10.43
2019-02-03T16:53:13.215Z,10.00
2019-02-03T16:55:42.531Z,14.33
2019-02-03T16:58:11.897Z,11.40
2019-02-03T17:00:41.242Z,14.27
2019-02-03T17:03:10.596Z,12.67
2019-02-03T17:05:39.912Z,9.60
2019-02-03T17:08:09.288Z,9.90
2019-02-03T17:10:38.674Z,14.03
2019-02-03T17:13:08.055Z,10.90
2019-02-03T17:15:44.679Z,11.73
2019-02-03T17:18:14.007Z,10.23
2019-02-03T17:20:43.338Z,10.73
2019-02-03T17:23:12.685Z,15.43
2019-02-03T17:25:44.722Z,14.23
2019-02-03T17:28:14.195Z,13.37
2019-02-03T17:30:43.475Z,12.20
2019-02-03T17:33:13.892Z,11.60
2019-02-03T17:35:54.059Z,14.40
2019-02-03T17:38:12.436Z,12.53
2019-02-03T17:40:41.783Z,10.97
2019-02-03T17:43:11.479Z,16.17
2019-02-03T17:45:42.907Z,10.73
2019-02-03T17:48:12.230Z,13.73
2019-02-03T17:50:41.563Z,11.87
2019-02-03T17:53:10.885Z,13.20
2019-02-03T17:55:40.281Z,13.73
2019-02-03T17:58:09.669Z,13.57
2019-02-03T18:00:41.168Z,15.53
2019-02-03T18:03:10.535Z,13.30
2019-02-03T18:05:39.888Z,12.93
2019-02-03T18:08:09.665Z,12.73
2019-02-03T18:10:39.035Z,12.87
2019-02-03T18:13:08.397Z,14.20
2019-02-03T18:15:37.824Z,14.00
2019-02-03T18:18:09.176Z,12.50
2019-02-03T18:20:38.938Z,11.60
2019-02-03T18:23:08.285Z,11.30
2019-02-03T18:25:37.656Z,13.80
2019-02-03T18:28:07.330Z,11.40
2019-02-03T18:30:37.084Z,15.03
2019-02-03T18:33:07.482Z,10.57
2019-02-03T18:35:36.821Z,11.70
2019-02-03T18:38:07.831Z,13.43
2019-02-03T18:40:37.189Z,10.97
2019-02-03T18:43:06.482Z,9.43
2019-02-03T18:45:35.765Z,9.93
2019-02-03T18:48:05.356Z,12.60
2019-02-03T18:50:34.789Z,9.57
2019-02-03T18:53:04.116Z,10.43
2019-02-03T18:55:35.324Z,12.17
2019-02-03T18:58:04.657Z,10.53
2019-02-03T19:00:36.190Z,8.83
2019-02-03T19:03:06.601Z,10.07
2019-02-03T19:05:37.186Z,11.07
2019-02-03T19:08:06.516Z,12.33
2019-02-03T19:10:35.907Z,9.53
2019-02-03T19:13:06.491Z,14.80
2019-02-03T19:15:35.795Z,10.37
2019-02-03T19:18:05.680Z,12.80
2019-02-03T19:20:36.333Z,14.00
2019-02-03T19:23:06.889Z,12.33
2019-02-03T19:25:36.316Z,16.83
2019-02-03T19:28:05.822Z,10.63
2019-02-03T19:30:35.098Z,10.93
2019-02-03T19:33:04.601Z,12.07
2019-02-03T19:35:34.009Z,12.77
2019-02-03T19:38:06.573Z,10.37
2019-02-03T19:40:32.965Z,11.70
2019-02-03T19:43:02.326Z,14.47
2019-02-03T19:45:31.719Z,11.60
2019-02-03T19:48:01.153Z,10.03
2019-02-03T19:50:32.456Z,11.27
2019-02-03T19:53:01.815Z,12.80
2019-02-03T19:55:31.065Z,11.87
2019-02-03T19:58:00.373Z,13.50
2019-02-03T20:00:34.428Z,13.20
2019-02-03T20:03:03.800Z,16.17
2019-02-03T20:05:33.191Z,14.80
2019-02-03T20:08:02.498Z,15.43
2019-02-03T20:10:31.800Z,14.37
2019-02-03T20:13:01.902Z,14.70
2019-02-03T20:15:30.539Z,12.40
2019-02-03T20:17:59.879Z,17.47
2019-02-03T20:20:33.159Z,15.20
2019-02-03T20:23:02.532Z,16.53
2019-02-03T20:25:31.904Z,174.67
2019-02-03T20:28:01.231Z,31.87
2019-02-03T20:30:38.866Z,17.47
2019-02-03T20:33:05.771Z,18.23
2019-02-03T20:35:35.074Z,14.77
2019-02-03T20:38:04.397Z,13.67
2019-02-03T20:40:35.501Z,14.27
2019-02-03T20:43:04.941Z,14.83
2019-02-03T20:45:36.218Z,14.80
2019-02-03T20:48:03.913Z,17.03
2019-02-03T20:50:33.221Z,13.73
2019-02-03T20:53:02.488Z,18.17
2019-02-03T20:55:31.838Z,18.00
2019-02-03T20:58:01.112Z,16.80
2019-02-03T21:00:32.099Z,14.90
2019-02-03T21:03:01.491Z,19.63
2019-02-03T21:05:30.804Z,15.27
2019-02-03T21:08:00.196Z,14.93
2019-02-03T21:10:38.285Z,18.07
2019-02-03T21:13:11.789Z,15.83
2019-02-03T21:15:37.383Z,16.93
2019-02-03T21:18:07.941Z,16.80
2019-02-03T21:20:36.082Z,16.30
2019-02-03T21:23:05.435Z,12.93
2019-02-03T21:25:34.676Z,15.90
2019-02-03T21:28:04.044Z,12.67
2019-02-03T21:30:35.386Z,13.00
2019-02-03T21:33:04.950Z,16.83
2019-02-03T21:35:34.466Z,13.50
2019-02-03T21:38:07.110Z,15.53
2019-02-03T21:40:36.413Z,14.83
2019-02-03T21:43:05.767Z,11.93
2019-02-03T21:45:44.477Z,11.83
2019-02-03T21:48:05.176Z,15.33
2019-02-03T21:50:34.579Z,18.23
2019-02-03T21:53:03.881Z,13.50
2019-02-03T21:55:38.358Z,19.87
2019-02-03T21:58:07.512Z,18.07
2019-02-03T22:00:36.759Z,16.50
2019-02-03T22:03:06.112Z,17.60
2019-02-03T22:05:35.682Z,11.70
2019-02-03T22:08:05.295Z,12.40
2019-02-03T22:10:36.448Z,15.87
2019-02-03T22:13:06.070Z,11.73
2019-02-03T22:15:35.453Z,8.67
2019-02-03T22:18:04.787Z,11.90
2019-02-03T22:20:34.162Z,14.60
2019-02-03T22:23:03.710Z,12.70
2019-02-03T22:25:33.187Z,11.43
2019-02-03T22:28:02.375Z,12.10
2019-02-03T22:30:36.373Z,8.13
2019-02-03T22:33:05.975Z,8.17
2019-02-03T22:35:37.577Z,11.37
2019-02-03T22:38:07.767Z,12.50
2019-02-03T22:40:37.087Z,15.27
2019-02-03T22:43:06.470Z,7.87
2019-02-03T22:45:35.810Z,11.67
2019-02-03T22:48:05.998Z,10.60
2019-02-03T22:50:35.302Z,13.00
2019-02-03T22:53:04.572Z,10.63
2019-02-03T22:55:33.913Z,9.90
2019-02-03T22:58:03.197Z,9.13
2019-02-03T23:01:05.157Z,13.57
2019-02-03T23:03:46.817Z,9.63
2019-02-03T23:06:16.077Z,10.50
2019-02-03T23:08:45.457Z,9.30
2019-02-03T23:11:14.778Z,11.40
2019-02-03T23:13:44.098Z,12.53
2019-02-03T23:16:18.257Z,11.23
2019-02-03T23:18:42.829Z,10.47
2019-02-03T23:21:12.082Z,9.97
2019-02-03T23:23:41.366Z,12.63
2019-02-03T23:26:10.642Z,12.50
2019-02-03T23:28:43.146Z,13.43
2019-02-03T23:31:12.414Z,15.33
2019-02-03T23:33:41.735Z,16.60
2019-02-03T23:36:11.075Z,11.93
2019-02-03T23:38:43.360Z,12.63
2019-02-03T23:41:12.745Z,11.53
2019-02-03T23:43:42.021Z,10.97
2019-02-03T23:46:13.337Z,10.93
2019-02-03T23:48:40.725Z,11.60
2019-02-03T23:51:10.053Z,12.03
2019-02-03T23:53:39.435Z,10.93
2019-02-03T23:56:08.754Z,10.37
2019-02-03T23:58:38.028Z,11.27
